sensor_id;sensor_type;location;lat;lon;timestamp;P1;durP1;ratioP1;P2;durP2;ratioP2
28455;SDS011;15682;56.742;38.866;2023-05-10T00:00:34;10.9;;;3.4;;
28455;SDS011;15682;56.742;38.866;2023-05-10T00:02:34;10.9;;;3.3;;
28455;SDS011;15682;56.742;38.866;2023-05-10T00:04:34;8.8;;;3.4;;
28455;SDS011;15682;56.742;38.866;2023-05-10T00:06:34;7.2;;;3.0;;
28455;SDS011;15682;56.742;38.866;2023-05-10T00:08:34;7.6;;;3.2;;
28455;SDS011;15682;56.742;38.866;2023-05-10T00:10:34;10.5;;;3.4;;
28455;SDS011;15682;56.742;38.866;2023-05-10T00:12:34;11.8;;;3.7;;
28455;SDS011;15682;56.742;38.866;2023-05-10T00:14:34;8.1;;;3.4;;
28455;SDS011;15682;56.742;38.866;2023-05-10T00:16:35;10.6;;;3.7;;
28455;SDS011;15682;56.742;38.866;2023-05-10T00:18:34;10.7;;;3.1;;
28455;SDS011;15682;56.742;38.866;2023-05-10T00:20:35;9.9;;;3.8;;
28455;SDS011;15682;56.742;38.866;2023-05-10T00:22:35;9.6;;;3.5;;
28455;SDS011;15682;56.742;38.866;2023-05-10T00:24:35;8.8;;;3.4;;
28455;SDS011;15682;56.742;38.866;2023-05-10T00:26:35;10.3;;;3.6;;
28455;SDS011;15682;56.742;38.866;2023-05-10T00:28:35;11.1;;;3.4;;
28455;SDS011;15682;56.742;38.866;2023-05-10T00:30:35;6.6;;;3.1;;
28455;SDS011;15682;56.742;38.866;2023-05-10T00:32:35;7.9;;;3.2;;
28455;SDS011;15682;56.742;38.866;2023-05-10T00:34:35;10.3;;;3.2;;
28455;SDS011;15682;56.742;38.866;2023-05-10T00:36:35;7.8;;;3.3;;
28455;SDS011;15682;56.742;38.866;2023-05-10T00:38:35;10.3;;;3.3;;
28455;SDS011;15682;56.742;38.866;2023-05-10T00:40:36;12.0;;;3.5;;
28455;SDS011;15682;56.742;38.866;2023-05-10T00:42:36;11.1;;;3.2;;
28455;SDS011;15682;56.742;38.866;2023-05-10T00:44:36;8.8;;;3.0;;
28455;SDS011;15682;56.742;38.866;2023-05-10T00:46:36;6.1;;;3.1;;
28455;SDS011;15682;56.742;38.866;2023-05-10T00:48:36;7.8;;;3.2;;
28455;SDS011;15682;56.742;38.866;2023-05-10T00:50:36;10.6;;;3.2;;
28455;SDS011;15682;56.742;38.866;2023-05-10T00:52:36;10.8;;;3.1;;
28455;SDS011;15682;56.742;38.866;2023-05-10T00:54:36;12.8;;;3.3;;
28455;SDS011;15682;56.742;38.866;2023-05-10T00:56:36;9.0;;;2.9;;
28455;SDS011;15682;56.742;38.866;2023-05-10T00:58:36;10.9;;;3.3;;
28455;SDS011;15682;56.742;38.866;2023-05-10T01:00:37;11.3;;;3.4;;
28455;SDS011;15682;56.742;38.866;2023-05-10T01:02:37;9.6;;;3.2;;
28455;SDS011;15682;56.742;38.866;2023-05-10T01:04:37;7.5;;;3.4;;
28455;SDS011;15682;56.742;38.866;2023-05-10T01:06:37;8.5;;;3.2;;
28455;SDS011;15682;56.742;38.866;2023-05-10T01:08:37;9.0;;;3.7;;
28455;SDS011;15682;56.742;38.866;2023-05-10T01:10:37;8.3;;;3.5;;
28455;SDS011;15682;56.742;38.866;2023-05-10T01:12:38;12.5;;;3.3;;
28455;SDS011;15682;56.742;38.866;2023-05-10T01:14:37;13.1;;;3.5;;
28455;SDS011;15682;56.742;38.866;2023-05-10T01:16:38;11.2;;;3.3;;
28455;SDS011;15682;56.742;38.866;2023-05-10T01:18:38;9.3;;;3.4;;
28455;SDS011;15682;56.742;38.866;2023-05-10T01:20:39;11.1;;;3.5;;
28455;SDS011;15682;56.742;38.866;2023-05-10T01:22:43;14.8;;;3.7;;
28455;SDS011;15682;56.742;38.866;2023-05-10T01:24:42;10.6;;;3.2;;
28455;SDS011;15682;56.742;38.866;2023-05-10T01:28:43;13.4;;;3.4;;
28455;SDS011;15682;56.742;38.866;2023-05-10T01:30:44;17.3;;;3.7;;
28455;SDS011;15682;56.742;38.866;2023-05-10T01:32:39;14.2;;;3.9;;
28455;SDS011;15682;56.742;38.866;2023-05-10T01:34:41;19.9;;;4.3;;
28455;SDS011;15682;56.742;38.866;2023-05-10T01:36:40;20.6;;;4.5;;
28455;SDS011;15682;56.742;38.866;2023-05-10T01:38:41;27.8;;;4.4;;
28455;SDS011;15682;56.742;38.866;2023-05-10T01:40:40;27.0;;;5.5;;
28455;SDS011;15682;56.742;38.866;2023-05-10T01:42:40;21.2;;;4.5;;
28455;SDS011;15682;56.742;38.866;2023-05-10T01:44:41;18.2;;;4.5;;
28455;SDS011;15682;56.742;38.866;2023-05-10T01:46:39;12.5;;;4.2;;
28455;SDS011;15682;56.742;38.866;2023-05-10T01:48:40;19.9;;;4.4;;
28455;SDS011;15682;56.742;38.866;2023-05-10T01:50:40;23.7;;;4.7;;
28455;SDS011;15682;56.742;38.866;2023-05-10T01:52:41;29.6;;;5.3;;
28455;SDS011;15682;56.742;38.866;2023-05-10T01:54:41;26.9;;;5.2;;
28455;SDS011;15682;56.742;38.866;2023-05-10T01:56:39;35.5;;;6.1;;
28455;SDS011;15682;56.742;38.866;2023-05-10T01:58:39;20.6;;;4.3;;
28455;SDS011;15682;56.742;38.866;2023-05-10T02:00:40;18.9;;;4.2;;
28455;SDS011;15682;56.742;38.866;2023-05-10T02:02:40;18.1;;;4.1;;
28455;SDS011;15682;56.742;38.866;2023-05-10T02:04:39;11.5;;;3.9;;
28455;SDS011;15682;56.742;38.866;2023-05-10T02:06:40;12.2;;;4.5;;
28455;SDS011;15682;56.742;38.866;2023-05-10T02:08:40;13.6;;;4.3;;
28455;SDS011;15682;56.742;38.866;2023-05-10T02:10:40;14.8;;;4.5;;
28455;SDS011;15682;56.742;38.866;2023-05-10T02:12:42;16.2;;;4.7;;
28455;SDS011;15682;56.742;38.866;2023-05-10T02:14:40;15.7;;;4.3;;
28455;SDS011;15682;56.742;38.866;2023-05-10T02:16:40;17.5;;;4.0;;
28455;SDS011;15682;56.742;38.866;2023-05-10T02:18:40;11.2;;;3.9;;
28455;SDS011;15682;56.742;38.866;2023-05-10T02:20:40;12.1;;;4.1;;
28455;SDS011;15682;56.742;38.866;2023-05-10T02:22:40;12.1;;;3.9;;
28455;SDS011;15682;56.742;38.866;2023-05-10T02:24:40;10.3;;;3.6;;
28455;SDS011;15682;56.742;38.866;2023-05-10T02:26:41;16.6;;;3.9;;
28455;SDS011;15682;56.742;38.866;2023-05-10T02:28:41;12.7;;;3.9;;
28455;SDS011;15682;56.742;38.866;2023-05-10T02:30:41;17.7;;;3.9;;
28455;SDS011;15682;56.742;38.866;2023-05-10T02:32:41;19.2;;;3.8;;
28455;SDS011;15682;56.742;38.866;2023-05-10T02:34:41;14.6;;;3.7;;
28455;SDS011;15682;56.742;38.866;2023-05-10T02:36:41;16.8;;;3.8;;
28455;SDS011;15682;56.742;38.866;2023-05-10T02:38:41;13.9;;;3.7;;
28455;SDS011;15682;56.742;38.866;2023-05-10T02:40:41;17.4;;;3.9;;
28455;SDS011;15682;56.742;38.866;2023-05-10T02:42:41;14.5;;;3.9;;
28455;SDS011;15682;56.742;38.866;2023-05-10T02:44:41;22.0;;;3.7;;
28455;SDS011;15682;56.742;38.866;2023-05-10T02:46:42;8.4;;;3.0;;
28455;SDS011;15682;56.742;38.866;2023-05-10T02:48:42;14.5;;;3.5;;
28455;SDS011;15682;56.742;38.866;2023-05-10T02:50:42;12.9;;;3.1;;
28455;SDS011;15682;56.742;38.866;2023-05-10T02:52:43;15.1;;;3.5;;
28455;SDS011;15682;56.742;38.866;2023-05-10T02:54:43;16.4;;;3.7;;
28455;SDS011;15682;56.742;38.866;2023-05-10T02:56:43;18.6;;;3.6;;
28455;SDS011;15682;56.742;38.866;2023-05-10T02:58:42;15.1;;;4.0;;
28455;SDS011;15682;56.742;38.866;2023-05-10T03:00:42;13.5;;;3.6;;
28455;SDS011;15682;56.742;38.866;2023-05-10T03:02:42;24.1;;;3.6;;
28455;SDS011;15682;56.742;38.866;2023-05-10T03:04:43;12.0;;;3.3;;
28455;SDS011;15682;56.742;38.866;2023-05-10T03:06:43;20.8;;;3.9;;
28455;SDS011;15682;56.742;38.866;2023-05-10T03:08:43;35.0;;;4.6;;
28455;SDS011;15682;56.742;38.866;2023-05-10T03:10:45;19.0;;;3.5;;
28455;SDS011;15682;56.742;38.866;2023-05-10T03:12:48;16.8;;;3.4;;
28455;SDS011;15682;56.742;38.866;2023-05-10T03:14:47;12.5;;;3.6;;
28455;SDS011;15682;56.742;38.866;2023-05-10T03:16:45;9.6;;;3.0;;
28455;SDS011;15682;56.742;38.866;2023-05-10T03:18:44;7.4;;;3.4;;
28455;SDS011;15682;56.742;38.866;2023-05-10T03:20:45;14.0;;;3.4;;
28455;SDS011;15682;56.742;38.866;2023-05-10T03:22:44;33.2;;;4.2;;
28455;SDS011;15682;56.742;38.866;2023-05-10T03:24:44;17.0;;;3.8;;
28455;SDS011;15682;56.742;38.866;2023-05-10T03:26:44;23.1;;;3.8;;
28455;SDS011;15682;56.742;38.866;2023-05-10T03:28:44;23.9;;;3.7;;
28455;SDS011;15682;56.742;38.866;2023-05-10T03:30:44;25.3;;;4.0;;
28455;SDS011;15682;56.742;38.866;2023-05-10T03:32:44;25.8;;;4.0;;
28455;SDS011;15682;56.742;38.866;2023-05-10T03:34:44;23.9;;;3.6;;
28455;SDS011;15682;56.742;38.866;2023-05-10T03:36:44;42.4;;;5.9;;
28455;SDS011;15682;56.742;38.866;2023-05-10T03:38:44;22.2;;;3.8;;
28455;SDS011;15682;56.742;38.866;2023-05-10T03:40:44;19.2;;;3.9;;
28455;SDS011;15682;56.742;38.866;2023-05-10T03:42:45;18.3;;;3.7;;
28455;SDS011;15682;56.742;38.866;2023-05-10T03:44:45;18.7;;;3.8;;
28455;SDS011;15682;56.742;38.866;2023-05-10T03:46:45;12.5;;;3.8;;
28455;SDS011;15682;56.742;38.866;2023-05-10T03:48:45;15.9;;;3.8;;
28455;SDS011;15682;56.742;38.866;2023-05-10T03:50:45;12.8;;;3.5;;
28455;SDS011;15682;56.742;38.866;2023-05-10T03:52:45;19.4;;;4.1;;
28455;SDS011;15682;56.742;38.866;2023-05-10T03:54:45;24.8;;;3.8;;
28455;SDS011;15682;56.742;38.866;2023-05-10T03:56:46;23.8;;;4.1;;
28455;SDS011;15682;56.742;38.866;2023-05-10T03:58:46;22.3;;;4.0;;
28455;SDS011;15682;56.742;38.866;2023-05-10T04:00:46;27.1;;;4.3;;
28455;SDS011;15682;56.742;38.866;2023-05-10T04:02:46;19.3;;;4.2;;
28455;SDS011;15682;56.742;38.866;2023-05-10T04:04:46;19.8;;;4.0;;
28455;SDS011;15682;56.742;38.866;2023-05-10T04:06:46;20.7;;;3.7;;
28455;SDS011;15682;56.742;38.866;2023-05-10T04:08:46;18.3;;;3.8;;
28455;SDS011;15682;56.742;38.866;2023-05-10T04:10:46;15.0;;;3.5;;
28455;SDS011;15682;56.742;38.866;2023-05-10T04:12:46;18.5;;;4.1;;
28455;SDS011;15682;56.742;38.866;2023-05-10T04:14:47;20.8;;;3.9;;
28455;SDS011;15682;56.742;38.866;2023-05-10T04:16:47;21.6;;;4.1;;
28455;SDS011;15682;56.742;38.866;2023-05-10T04:18:47;32.5;;;4.3;;
28455;SDS011;15682;56.742;38.866;2023-05-10T04:20:47;43.2;;;5.0;;
28455;SDS011;15682;56.742;38.866;2023-05-10T04:22:47;22.0;;;5.0;;
28455;SDS011;15682;56.742;38.866;2023-05-10T04:24:47;23.5;;;4.7;;
28455;SDS011;15682;56.742;38.866;2023-05-10T04:26:47;34.9;;;4.9;;
28455;SDS011;15682;56.742;38.866;2023-05-10T04:28:48;31.2;;;5.0;;
28455;SDS011;15682;56.742;38.866;2023-05-10T04:30:48;62.3;;;7.2;;
28455;SDS011;15682;56.742;38.866;2023-05-10T04:32:48;48.6;;;7.4;;
28455;SDS011;15682;56.742;38.866;2023-05-10T04:34:48;38.0;;;7.4;;
28455;SDS011;15682;56.742;38.866;2023-05-10T04:36:48;38.5;;;6.0;;
28455;SDS011;15682;56.742;38.866;2023-05-10T04:38:48;40.0;;;6.2;;
28455;SDS011;15682;56.742;38.866;2023-05-10T04:40:49;27.1;;;5.6;;
28455;SDS011;15682;56.742;38.866;2023-05-10T04:42:49;15.6;;;3.8;;
28455;SDS011;15682;56.742;38.866;2023-05-10T04:44:49;19.9;;;4.1;;
28455;SDS011;15682;56.742;38.866;2023-05-10T04:46:49;22.8;;;3.8;;
28455;SDS011;15682;56.742;38.866;2023-05-10T04:48:49;41.5;;;4.4;;
28455;SDS011;15682;56.742;38.866;2023-05-10T04:50:49;41.1;;;4.4;;
28455;SDS011;15682;56.742;38.866;2023-05-10T04:52:50;35.5;;;3.7;;
28455;SDS011;15682;56.742;38.866;2023-05-10T04:54:50;15.5;;;3.4;;
28455;SDS011;15682;56.742;38.866;2023-05-10T04:56:50;8.4;;;3.3;;
28455;SDS011;15682;56.742;38.866;2023-05-10T04:58:51;11.0;;;3.2;;
28455;SDS011;15682;56.742;38.866;2023-05-10T05:00:51;17.1;;;2.9;;
28455;SDS011;15682;56.742;38.866;2023-05-10T05:02:51;6.6;;;2.7;;
28455;SDS011;15682;56.742;38.866;2023-05-10T05:04:52;9.8;;;2.6;;
28455;SDS011;15682;56.742;38.866;2023-05-10T05:06:52;7.3;;;2.7;;
28455;SDS011;15682;56.742;38.866;2023-05-10T05:08:53;6.6;;;2.5;;
28455;SDS011;15682;56.742;38.866;2023-05-10T05:10:53;8.8;;;2.6;;
28455;SDS011;15682;56.742;38.866;2023-05-10T05:12:54;14.7;;;2.5;;
28455;SDS011;15682;56.742;38.866;2023-05-10T05:14:54;10.4;;;2.8;;
28455;SDS011;15682;56.742;38.866;2023-05-10T05:16:55;9.2;;;2.4;;
28455;SDS011;15682;56.742;38.866;2023-05-10T05:18:55;9.5;;;2.6;;
28455;SDS011;15682;56.742;38.866;2023-05-10T05:20:56;5.9;;;2.7;;
28455;SDS011;15682;56.742;38.866;2023-05-10T05:22:56;11.1;;;3.0;;
28455;SDS011;15682;56.742;38.866;2023-05-10T05:24:57;6.5;;;3.2;;
28455;SDS011;15682;56.742;38.866;2023-05-10T05:26:57;6.0;;;2.9;;
28455;SDS011;15682;56.742;38.866;2023-05-10T05:28:58;5.6;;;2.7;;
28455;SDS011;15682;56.742;38.866;2023-05-10T05:30:58;9.0;;;2.7;;
28455;SDS011;15682;56.742;38.866;2023-05-10T05:32:59;5.3;;;2.5;;
28455;SDS011;15682;56.742;38.866;2023-05-10T05:34:59;11.9;;;2.8;;
28455;SDS011;15682;56.742;38.866;2023-05-10T05:37:00;7.3;;;2.6;;
28455;SDS011;15682;56.742;38.866;2023-05-10T05:39:00;16.9;;;3.0;;
28455;SDS011;15682;56.742;38.866;2023-05-10T05:41:01;12.0;;;2.8;;
28455;SDS011;15682;56.742;38.866;2023-05-10T05:43:01;20.7;;;3.4;;
28455;SDS011;15682;56.742;38.866;2023-05-10T05:45:02;26.3;;;4.2;;
28455;SDS011;15682;56.742;38.866;2023-05-10T05:47:02;10.7;;;3.4;;
28455;SDS011;15682;56.742;38.866;2023-05-10T05:49:02;7.8;;;3.1;;
28455;SDS011;15682;56.742;38.866;2023-05-10T05:51:03;7.3;;;2.9;;
28455;SDS011;15682;56.742;38.866;2023-05-10T05:53:03;33.5;;;3.5;;
28455;SDS011;15682;56.742;38.866;2023-05-10T05:55:04;9.5;;;2.6;;
28455;SDS011;15682;56.742;38.866;2023-05-10T05:57:04;7.2;;;2.8;;
28455;SDS011;15682;56.742;38.866;2023-05-10T05:59:04;12.6;;;3.1;;
28455;SDS011;15682;56.742;38.866;2023-05-10T06:01:04;9.5;;;2.9;;
28455;SDS011;15682;56.742;38.866;2023-05-10T06:03:05;10.5;;;2.9;;
28455;SDS011;15682;56.742;38.866;2023-05-10T06:05:06;7.4;;;2.4;;
28455;SDS011;15682;56.742;38.866;2023-05-10T06:07:06;7.9;;;2.6;;
28455;SDS011;15682;56.742;38.866;2023-05-10T06:09:06;9.7;;;2.7;;
28455;SDS011;15682;56.742;38.866;2023-05-10T06:11:06;7.7;;;2.5;;
28455;SDS011;15682;56.742;38.866;2023-05-10T06:13:07;7.8;;;2.1;;
28455;SDS011;15682;56.742;38.866;2023-05-10T06:15:08;6.7;;;2.6;;
28455;SDS011;15682;56.742;38.866;2023-05-10T06:17:07;7.5;;;2.7;;
28455;SDS011;15682;56.742;38.866;2023-05-10T06:19:08;7.8;;;2.8;;
28455;SDS011;15682;56.742;38.866;2023-05-10T06:21:08;21.4;;;2.9;;
28455;SDS011;15682;56.742;38.866;2023-05-10T06:23:09;9.3;;;2.9;;
28455;SDS011;15682;56.742;38.866;2023-05-10T06:25:09;25.4;;;3.2;;
28455;SDS011;15682;56.742;38.866;2023-05-10T06:27:09;14.8;;;2.9;;
28455;SDS011;15682;56.742;38.866;2023-05-10T06:29:10;8.0;;;2.7;;
28455;SDS011;15682;56.742;38.866;2023-05-10T06:31:10;9.0;;;3.2;;
28455;SDS011;15682;56.742;38.866;2023-05-10T06:33:11;12.8;;;2.8;;
28455;SDS011;15682;56.742;38.866;2023-05-10T06:35:11;9.0;;;2.4;;
28455;SDS011;15682;56.742;38.866;2023-05-10T06:37:12;7.0;;;2.6;;
28455;SDS011;15682;56.742;38.866;2023-05-10T06:39:12;43.7;;;4.4;;
28455;SDS011;15682;56.742;38.866;2023-05-10T06:41:13;17.7;;;3.1;;
28455;SDS011;15682;56.742;38.866;2023-05-10T06:43:14;18.4;;;3.2;;
28455;SDS011;15682;56.742;38.866;2023-05-10T06:45:14;26.0;;;2.8;;
28455;SDS011;15682;56.742;38.866;2023-05-10T06:47:15;8.2;;;2.7;;
28455;SDS011;15682;56.742;38.866;2023-05-10T06:49:16;10.3;;;2.7;;
28455;SDS011;15682;56.742;38.866;2023-05-10T06:51:16;7.9;;;2.6;;
28455;SDS011;15682;56.742;38.866;2023-05-10T06:53:17;15.6;;;3.8;;
28455;SDS011;15682;56.742;38.866;2023-05-10T06:55:18;11.8;;;3.4;;
28455;SDS011;15682;56.742;38.866;2023-05-10T06:57:18;8.1;;;3.0;;
28455;SDS011;15682;56.742;38.866;2023-05-10T06:59:19;7.9;;;3.1;;
28455;SDS011;15682;56.742;38.866;2023-05-10T07:01:19;8.8;;;3.0;;
28455;SDS011;15682;56.742;38.866;2023-05-10T07:03:20;32.4;;;4.0;;
28455;SDS011;15682;56.742;38.866;2023-05-10T07:05:21;204.7;;;9.6;;
28455;SDS011;15682;56.742;38.866;2023-05-10T07:07:22;19.2;;;3.3;;
28455;SDS011;15682;56.742;38.866;2023-05-10T07:09:22;14.3;;;4.3;;
28455;SDS011;15682;56.742;38.866;2023-05-10T07:11:23;6.9;;;3.5;;
28455;SDS011;15682;56.742;38.866;2023-05-10T07:13:24;8.0;;;2.8;;
28455;SDS011;15682;56.742;38.866;2023-05-10T07:15:24;8.2;;;2.2;;
28455;SDS011;15682;56.742;38.866;2023-05-10T07:17:25;6.8;;;2.4;;
28455;SDS011;15682;56.742;38.866;2023-05-10T07:19:26;6.1;;;2.3;;
28455;SDS011;15682;56.742;38.866;2023-05-10T07:21:26;4.5;;;2.0;;
28455;SDS011;15682;56.742;38.866;2023-05-10T07:23:27;6.5;;;2.0;;
28455;SDS011;15682;56.742;38.866;2023-05-10T07:25:28;4.7;;;1.8;;
28455;SDS011;15682;56.742;38.866;2023-05-10T07:27:29;6.6;;;1.9;;
28455;SDS011;15682;56.742;38.866;2023-05-10T07:29:29;11.2;;;2.1;;
28455;SDS011;15682;56.742;38.866;2023-05-10T07:31:30;5.0;;;1.8;;
28455;SDS011;15682;56.742;38.866;2023-05-10T07:33:30;3.8;;;1.8;;
28455;SDS011;15682;56.742;38.866;2023-05-10T07:35:31;6.5;;;1.6;;
28455;SDS011;15682;56.742;38.866;2023-05-10T07:37:31;4.3;;;1.9;;
28455;SDS011;15682;56.742;38.866;2023-05-10T07:39:32;3.2;;;1.5;;
28455;SDS011;15682;56.742;38.866;2023-05-10T07:41:32;6.2;;;1.4;;
28455;SDS011;15682;56.742;38.866;2023-05-10T07:43:33;5.1;;;1.4;;
28455;SDS011;15682;56.742;38.866;2023-05-10T07:45:33;4.8;;;1.6;;
28455;SDS011;15682;56.742;38.866;2023-05-10T07:47:34;7.1;;;1.7;;
28455;SDS011;15682;56.742;38.866;2023-05-10T07:49:34;3.9;;;1.6;;
28455;SDS011;15682;56.742;38.866;2023-05-10T07:51:35;4.3;;;1.5;;
28455;SDS011;15682;56.742;38.866;2023-05-10T07:53:35;4.8;;;1.5;;
28455;SDS011;15682;56.742;38.866;2023-05-10T07:55:36;4.1;;;1.5;;
28455;SDS011;15682;56.742;38.866;2023-05-10T07:57:37;8.2;;;1.5;;
28455;SDS011;15682;56.742;38.866;2023-05-10T07:59:36;36.6;;;2.4;;
28455;SDS011;15682;56.742;38.866;2023-05-10T08:01:37;8.3;;;1.8;;
28455;SDS011;15682;56.742;38.866;2023-05-10T08:03:37;5.0;;;1.5;;
28455;SDS011;15682;56.742;38.866;2023-05-10T08:05:38;5.7;;;1.6;;
28455;SDS011;15682;56.742;38.866;2023-05-10T08:07:38;5.8;;;1.4;;
28455;SDS011;15682;56.742;38.866;2023-05-10T08:09:39;4.1;;;1.3;;
28455;SDS011;15682;56.742;38.866;2023-05-10T08:11:39;4.5;;;1.4;;
28455;SDS011;15682;56.742;38.866;2023-05-10T08:13:39;9.3;;;1.5;;
28455;SDS011;15682;56.742;38.866;2023-05-10T08:15:40;7.4;;;1.5;;
28455;SDS011;15682;56.742;38.866;2023-05-10T08:17:40;39.3;;;2.6;;
28455;SDS011;15682;56.742;38.866;2023-05-10T08:19:41;7.5;;;1.6;;
28455;SDS011;15682;56.742;38.866;2023-05-10T08:21:41;6.4;;;1.6;;
28455;SDS011;15682;56.742;38.866;2023-05-10T08:23:42;9.5;;;1.9;;
28455;SDS011;15682;56.742;38.866;2023-05-10T08:25:42;10.7;;;1.9;;
28455;SDS011;15682;56.742;38.866;2023-05-10T08:27:42;8.9;;;1.8;;
28455;SDS011;15682;56.742;38.866;2023-05-10T08:29:43;17.6;;;1.9;;
28455;SDS011;15682;56.742;38.866;2023-05-10T08:31:43;3.2;;;1.5;;
28455;SDS011;15682;56.742;38.866;2023-05-10T08:33:44;6.1;;;1.6;;
28455;SDS011;15682;56.742;38.866;2023-05-10T08:35:44;7.9;;;1.6;;
28455;SDS011;15682;56.742;38.866;2023-05-10T08:37:45;6.8;;;1.5;;
28455;SDS011;15682;56.742;38.866;2023-05-10T08:39:45;5.5;;;1.4;;
28455;SDS011;15682;56.742;38.866;2023-05-10T08:41:45;21.3;;;1.7;;
28455;SDS011;15682;56.742;38.866;2023-05-10T08:43:46;8.8;;;1.6;;
28455;SDS011;15682;56.742;38.866;2023-05-10T08:45:46;15.6;;;1.8;;
28455;SDS011;15682;56.742;38.866;2023-05-10T08:47:47;9.5;;;1.7;;
28455;SDS011;15682;56.742;38.866;2023-05-10T08:49:47;29.6;;;2.4;;
28455;SDS011;15682;56.742;38.866;2023-05-10T08:51:49;31.2;;;2.2;;
28455;SDS011;15682;56.742;38.866;2023-05-10T08:53:48;18.3;;;2.0;;
28455;SDS011;15682;56.742;38.866;2023-05-10T08:55:48;16.4;;;1.9;;
28455;SDS011;15682;56.742;38.866;2023-05-10T08:57:49;10.0;;;1.7;;
28455;SDS011;15682;56.742;38.866;2023-05-10T08:59:49;4.6;;;1.7;;
28455;SDS011;15682;56.742;38.866;2023-05-10T09:01:50;6.0;;;1.5;;
28455;SDS011;15682;56.742;38.866;2023-05-10T09:03:50;5.7;;;1.5;;
28455;SDS011;15682;56.742;38.866;2023-05-10T09:05:50;5.4;;;1.6;;
28455;SDS011;15682;56.742;38.866;2023-05-10T09:07:51;7.7;;;1.4;;
28455;SDS011;15682;56.742;38.866;2023-05-10T09:09:51;5.3;;;1.7;;
28455;SDS011;15682;56.742;38.866;2023-05-10T09:11:51;6.2;;;1.5;;
28455;SDS011;15682;56.742;38.866;2023-05-10T09:13:52;8.4;;;1.6;;
28455;SDS011;15682;56.742;38.866;2023-05-10T09:15:52;5.6;;;1.5;;
28455;SDS011;15682;56.742;38.866;2023-05-10T09:17:53;54.1;;;3.4;;
28455;SDS011;15682;56.742;38.866;2023-05-10T09:19:57;6.9;;;1.7;;
28455;SDS011;15682;56.742;38.866;2023-05-10T09:21:53;22.2;;;2.0;;
28455;SDS011;15682;56.742;38.866;2023-05-10T09:23:54;9.0;;;1.8;;
28455;SDS011;15682;56.742;38.866;2023-05-10T09:26:01;19.8;;;2.0;;
28455;SDS011;15682;56.742;38.866;2023-05-10T09:27:55;6.2;;;1.8;;
28455;SDS011;15682;56.742;38.866;2023-05-10T09:29:55;10.0;;;1.9;;
28455;SDS011;15682;56.742;38.866;2023-05-10T09:31:55;15.3;;;2.3;;
28455;SDS011;15682;56.742;38.866;2023-05-10T09:33:55;9.5;;;2.7;;
28455;SDS011;15682;56.742;38.866;2023-05-10T09:36:05;19.7;;;2.3;;
28455;SDS011;15682;56.742;38.866;2023-05-10T09:37:57;19.1;;;2.2;;
28455;SDS011;15682;56.742;38.866;2023-05-10T09:39:57;8.0;;;1.7;;
28455;SDS011;15682;56.742;38.866;2023-05-10T09:41:57;6.6;;;1.9;;
28455;SDS011;15682;56.742;38.866;2023-05-10T09:43:57;7.4;;;1.9;;
28455;SDS011;15682;56.742;38.866;2023-05-10T09:45:58;4.9;;;1.9;;
28455;SDS011;15682;56.742;38.866;2023-05-10T09:47:59;15.8;;;2.1;;
28455;SDS011;15682;56.742;38.866;2023-05-10T09:49:59;6.4;;;2.0;;
28455;SDS011;15682;56.742;38.866;2023-05-10T09:51:59;7.8;;;1.9;;
28455;SDS011;15682;56.742;38.866;2023-05-10T09:56:00;7.0;;;1.7;;
28455;SDS011;15682;56.742;38.866;2023-05-10T09:58:00;4.0;;;1.7;;
28455;SDS011;15682;56.742;38.866;2023-05-10T10:00:00;16.9;;;2.2;;
28455;SDS011;15682;56.742;38.866;2023-05-10T10:02:01;9.3;;;1.9;;
28455;SDS011;15682;56.742;38.866;2023-05-10T10:04:02;12.3;;;1.8;;
28455;SDS011;15682;56.742;38.866;2023-05-10T10:06:02;6.9;;;1.9;;
28455;SDS011;15682;56.742;38.866;2023-05-10T10:08:03;6.0;;;1.5;;
28455;SDS011;15682;56.742;38.866;2023-05-10T10:10:02;6.5;;;1.6;;
28455;SDS011;15682;56.742;38.866;2023-05-10T10:12:03;6.8;;;1.9;;
28455;SDS011;15682;56.742;38.866;2023-05-10T10:14:03;4.8;;;1.8;;
28455;SDS011;15682;56.742;38.866;2023-05-10T10:16:04;13.4;;;2.1;;
28455;SDS011;15682;56.742;38.866;2023-05-10T10:18:04;5.7;;;1.9;;
28455;SDS011;15682;56.742;38.866;2023-05-10T10:20:05;8.9;;;1.8;;
28455;SDS011;15682;56.742;38.866;2023-05-10T10:22:05;5.1;;;1.6;;
28455;SDS011;15682;56.742;38.866;2023-05-10T10:24:05;11.1;;;2.1;;
28455;SDS011;15682;56.742;38.866;2023-05-10T10:26:05;7.1;;;2.0;;
28455;SDS011;15682;56.742;38.866;2023-05-10T10:28:09;9.0;;;2.0;;
28455;SDS011;15682;56.742;38.866;2023-05-10T10:30:10;13.0;;;2.1;;
28455;SDS011;15682;56.742;38.866;2023-05-10T10:32:08;75.6;;;4.4;;
28455;SDS011;15682;56.742;38.866;2023-05-10T10:34:08;11.4;;;2.0;;
28455;SDS011;15682;56.742;38.866;2023-05-10T10:36:07;11.8;;;2.2;;
28455;SDS011;15682;56.742;38.866;2023-05-10T10:38:08;20.3;;;2.3;;
28455;SDS011;15682;56.742;38.866;2023-05-10T10:42:09;53.3;;;3.5;;
28455;SDS011;15682;56.742;38.866;2023-05-10T10:46:10;21.2;;;2.4;;
28455;SDS011;15682;56.742;38.866;2023-05-10T10:50:10;8.3;;;1.5;;
28455;SDS011;15682;56.742;38.866;2023-05-10T10:54:11;10.0;;;1.6;;
28455;SDS011;15682;56.742;38.866;2023-05-10T10:56:12;10.2;;;1.8;;
28455;SDS011;15682;56.742;38.866;2023-05-10T10:58:12;11.1;;;1.9;;
28455;SDS011;15682;56.742;38.866;2023-05-10T11:04:20;5.6;;;1.7;;
28455;SDS011;15682;56.742;38.866;2023-05-10T11:06:16;13.5;;;2.0;;
28455;SDS011;15682;56.742;38.866;2023-05-10T11:08:16;6.2;;;1.6;;
28455;SDS011;15682;56.742;38.866;2023-05-10T11:10:17;8.0;;;1.6;;
28455;SDS011;15682;56.742;38.866;2023-05-10T11:12:15;7.1;;;1.4;;
28455;SDS011;15682;56.742;38.866;2023-05-10T11:14:15;5.0;;;1.4;;
28455;SDS011;15682;56.742;38.866;2023-05-10T11:16:16;6.3;;;1.5;;
28455;SDS011;15682;56.742;38.866;2023-05-10T11:18:16;8.8;;;1.8;;
28455;SDS011;15682;56.742;38.866;2023-05-10T11:20:16;20.2;;;1.7;;
28455;SDS011;15682;56.742;38.866;2023-05-10T11:22:17;6.7;;;1.5;;
28455;SDS011;15682;56.742;38.866;2023-05-10T11:24:18;11.9;;;1.9;;
28455;SDS011;15682;56.742;38.866;2023-05-10T11:26:18;6.6;;;1.7;;
28455;SDS011;15682;56.742;38.866;2023-05-10T11:28:18;7.1;;;1.4;;
28455;SDS011;15682;56.742;38.866;2023-05-10T11:30:18;16.1;;;1.7;;
28455;SDS011;15682;56.742;38.866;2023-05-10T11:32:19;9.3;;;1.9;;
28455;SDS011;15682;56.742;38.866;2023-05-10T11:34:22;4.6;;;1.4;;
28455;SDS011;15682;56.742;38.866;2023-05-10T11:36:21;9.5;;;1.5;;
28455;SDS011;15682;56.742;38.866;2023-05-10T11:38:20;6.1;;;1.4;;
28455;SDS011;15682;56.742;38.866;2023-05-10T11:40:21;7.9;;;1.7;;
28455;SDS011;15682;56.742;38.866;2023-05-10T11:42:21;9.9;;;1.4;;
28455;SDS011;15682;56.742;38.866;2023-05-10T11:44:21;30.4;;;2.3;;
28455;SDS011;15682;56.742;38.866;2023-05-10T11:46:22;9.3;;;1.4;;
28455;SDS011;15682;56.742;38.866;2023-05-10T11:48:22;5.8;;;1.5;;
28455;SDS011;15682;56.742;38.866;2023-05-10T11:50:22;22.5;;;2.2;;
28455;SDS011;15682;56.742;38.866;2023-05-10T11:52:23;10.2;;;1.4;;
28455;SDS011;15682;56.742;38.866;2023-05-10T11:54:23;5.5;;;1.6;;
28455;SDS011;15682;56.742;38.866;2023-05-10T11:56:23;6.5;;;1.6;;
28455;SDS011;15682;56.742;38.866;2023-05-10T11:58:24;12.4;;;1.7;;
28455;SDS011;15682;56.742;38.866;2023-05-10T12:00:24;11.7;;;1.7;;
28455;SDS011;15682;56.742;38.866;2023-05-10T12:02:24;30.1;;;2.1;;
28455;SDS011;15682;56.742;38.866;2023-05-10T12:04:25;13.2;;;1.6;;
28455;SDS011;15682;56.742;38.866;2023-05-10T12:06:26;16.3;;;2.0;;
28455;SDS011;15682;56.742;38.866;2023-05-10T12:08:26;12.2;;;1.8;;
28455;SDS011;15682;56.742;38.866;2023-05-10T12:10:26;14.1;;;1.6;;
28455;SDS011;15682;56.742;38.866;2023-05-10T12:12:26;7.8;;;1.6;;
28455;SDS011;15682;56.742;38.866;2023-05-10T12:14:27;6.5;;;1.6;;
28455;SDS011;15682;56.742;38.866;2023-05-10T12:16:28;7.7;;;1.7;;
28455;SDS011;15682;56.742;38.866;2023-05-10T12:18:28;8.6;;;1.8;;
28455;SDS011;15682;56.742;38.866;2023-05-10T12:20:28;8.1;;;2.1;;
28455;SDS011;15682;56.742;38.866;2023-05-10T12:22:28;10.6;;;3.3;;
28455;SDS011;15682;56.742;38.866;2023-05-10T12:24:29;12.3;;;2.4;;